Time;durP1;ratioP1;P1;durP2;ratioP2;P2;SDS_P1;SDS_P2;PMS_P1;PMS_P2;Temp;Humidity;BMP_temperature;BMP_pressure;BME280_temperature;BME280_humidity;BME280_pressure;Samples;Min_cycle;Max_cycle;Signal;HPM_P1;HPM_P2
2022/11/25 00:01:12;;;;;;;31.55;13.02;;;;;;;4.34;100.00;100310.56;4984178;28;20042;-72
2022/11/25 00:03:41;;;;;;;30.88;13.30;;;;;;;4.30;100.00;100308.03;4998396;28;20050;-72
2022/11/25 00:06:30;;;;;;;24.13;12.80;;;;;;;4.29;100.00;100309.78;5003140;28;20106;-72
2022/11/25 00:09:00;;;;;;;29.15;12.10;;;;;;;4.27;100.00;100322.06;4992208;28;20050;-73
2022/11/25 00:11:27;;;;;;;27.98;12.98;;;;;;;4.21;100.00;100309.13;4983295;28;20109;-71
2022/11/25 00:13:55;;;;;;;26.20;11.48;;;;;;;4.26;100.00;100311.59;5001397;28;20145;-70
2022/11/25 00:16:25;;;;;;;24.73;11.43;;;;;;;4.29;100.00;100307.16;4999852;28;20056;-71
2022/11/25 00:18:53;;;;;;;25.45;12.10;;;;;;;4.28;100.00;100289.72;4997893;28;20470;-71
2022/11/25 00:21:30;;;;;;;26.13;10.95;;;;;;;4.25;100.00;100297.63;4983409;28;20049;-71
2022/11/25 00:23:59;;;;;;;21.63;11.27;;;;;;;4.14;100.00;100290.03;4998674;28;20049;-71
2022/11/25 00:26:27;;;;;;;23.67;12.05;;;;;;;4.09;100.00;100284.03;5003821;28;20058;-70
2022/11/25 00:28:57;;;;;;;24.75;11.32;;;;;;;4.05;100.00;100295.50;4996810;28;20129;-71
2022/11/25 00:31:29;;;;;;;20.60;11.20;;;;;;;3.91;100.00;100275.72;4980278;28;20100;-72
2022/11/25 00:33:56;;;;;;;22.95;11.25;;;;;;;4.00;100.00;100291.25;4996009;28;20096;-71
2022/11/25 00:36:29;;;;;;;27.63;11.88;;;;;;;3.96;100.00;100284.34;5002166;28;20080;-72
2022/11/25 00:38:59;;;;;;;25.35;12.65;;;;;;;3.98;100.00;100299.13;4997725;28;20113;-71
2022/11/25 00:47:14;;;;;;;23.67;11.25;;;;;;;3.98;100.00;100306.13;5002347;28;20065;-72
2022/11/25 00:49:44;;;;;;;22.23;10.93;;;;;;;3.97;100.00;100296.53;4991751;28;20129;-71
2022/11/25 00:52:17;;;;;;;26.77;12.02;;;;;;;3.87;100.00;100264.44;4991302;28;20488;-71
2022/11/25 00:54:46;;;;;;;27.75;11.18;;;;;;;4.15;100.00;100288.28;4997147;28;20054;-72
2022/11/25 00:57:14;;;;;;;24.90;11.73;;;;;;;4.16;100.00;100293.47;4993965;28;20138;-74
2022/11/25 00:59:40;;;;;;;23.70;11.55;;;;;;;4.12;100.00;100288.34;4987096;28;20469;-71
2022/11/25 01:02:09;;;;;;;24.92;11.63;;;;;;;3.92;100.00;100253.88;4988414;28;20125;-70
2022/11/25 01:04:36;;;;;;;25.17;11.50;;;;;;;4.13;100.00;100285.69;4996266;28;20046;-69
2022/11/25 01:07:03;;;;;;;24.58;11.90;;;;;;;4.08;100.00;100276.22;5002121;28;20491;-71
2022/11/25 01:09:30;;;;;;;27.17;12.50;;;;;;;4.15;100.00;100277.78;4996460;28;20141;-71
2022/11/25 01:11:57;;;;;;;26.52;11.68;;;;;;;4.19;100.00;100280.31;4984368;28;20149;-70
2022/11/25 01:14:24;;;;;;;25.98;12.27;;;;;;;4.17;100.00;100281.25;5003089;28;20081;-69
2022/11/25 01:16:51;;;;;;;23.45;11.35;;;;;;;4.05;100.00;100276.28;4997507;28;20115;-71
2022/11/25 01:19:19;;;;;;;24.42;11.52;;;;;;;4.07;100.00;100306.81;4996353;28;20128;-71
2022/11/25 01:21:45;;;;;;;27.02;11.50;;;;;;;4.04;100.00;100303.38;4985911;28;20120;-71
2022/11/25 01:24:14;;;;;;;25.90;11.25;;;;;;;4.06;100.00;100301.59;4994940;28;20061;-73
2022/11/25 01:26:41;;;;;;;27.52;11.80;;;;;;;3.90;100.00;100285.34;4998276;28;20050;-71
2022/11/25 01:29:15;;;;;;;25.90;11.43;;;;;;;4.02;100.00;100307.78;4995021;28;20101;-72
2022/11/25 01:31:42;;;;;;;23.75;11.43;;;;;;;4.08;100.00;100307.66;4989485;28;20088;-72
2022/11/25 01:34:17;;;;;;;26.63;12.00;;;;;;;4.14;100.00;100307.50;4998023;28;20054;-72
2022/11/25 01:36:44;;;;;;;28.23;11.68;;;;;;;4.09;100.00;100291.06;4997779;28;20145;-73
2022/11/25 01:39:18;;;;;;;25.55;11.15;;;;;;;4.21;100.00;100304.75;4999612;28;20108;-72
2022/11/25 01:41:46;;;;;;;23.38;10.90;;;;;;;4.23;100.00;100299.47;4978096;28;20058;-72
2022/11/25 01:44:18;;;;;;;25.13;11.13;;;;;;;4.14;100.00;100273.44;4998204;28;20422;-72
2022/11/25 01:46:51;;;;;;;22.35;11.23;;;;;;;4.34;100.00;100279.09;4999198;28;20461;-70
2022/11/25 01:49:33;;;;;;;23.30;11.00;;;;;;;4.51;100.00;100308.41;4991529;28;20078;-70
2022/11/25 01:52:12;;;;;;;24.80;11.45;;;;;;;4.58;100.00;100299.47;4981898;28;20062;-70
2022/11/25 01:55:00;;;;;;;24.75;9.82;;;;;;;4.66;100.00;100301.06;5000712;28;20458;-72
2022/11/25 01:57:33;;;;;;;21.30;10.98;;;;;;;4.73;100.00;100297.38;4993337;28;20054;-72
2022/11/25 02:00:04;;;;;;;25.67;10.70;;;;;;;4.72;100.00;100306.19;4996939;28;20061;-70
2022/11/25 02:02:31;;;;;;;;;;;;;;;4.79;100.00;100302.50;4985690;28;20530;-71
2022/11/25 02:05:00;;;;;;;21.88;10.00;;;;;;;4.79;100.00;100300.72;4998015;28;19948;-71
2022/11/25 02:07:33;;;;;;;23.75;11.05;;;;;;;4.82;100.00;100294.53;4998453;28;20054;-70
2022/11/25 02:10:02;;;;;;;17.33;9.05;;;;;;;4.79;100.00;100290.22;4997028;28;20054;-71
2022/11/25 02:12:29;;;;;;;20.05;9.75;;;;;;;4.84;100.00;100290.13;4996094;28;20129;-72
2022/11/25 02:14:58;;;;;;;18.92;9.55;;;;;;;4.90;100.00;100298.69;5002576;28;20064;-71
2022/11/25 02:17:25;;;;;;;22.73;9.90;;;;;;;4.89;100.00;100296.97;4992682;28;20053;-73
2022/11/25 02:19:58;;;;;;;18.38;9.70;;;;;;;4.92;100.00;100301.28;4995273;28;20064;-70
2022/11/25 02:23:08;;;;;;;22.52;10.02;;;;;;;4.88;100.00;100292.59;4980583;28;20520;-71
2022/11/25 02:25:38;;;;;;;22.90;10.13;;;;;;;4.89;100.00;100291.72;4984527;28;20042;-72
2022/11/25 02:28:05;;;;;;;21.35;9.93;;;;;;;4.88;100.00;100289.13;4994548;28;20148;-71
2022/11/25 02:30:32;;;;;;;20.88;9.90;;;;;;;4.87;100.00;100295.31;4990780;28;20049;-71
2022/11/25 02:32:59;;;;;;;17.33;9.35;;;;;;;4.74;100.00;100267.63;4986402;28;20157;-71
2022/11/25 02:35:30;;;;;;;22.25;9.93;;;;;;;4.84;100.00;100295.38;4999450;28;20046;-71
2022/11/25 02:38:12;;;;;;;18.88;9.23;;;;;;;4.81;100.00;100283.19;4995095;28;20480;-71
2022/11/25 02:41:03;;;;;;;22.42;9.98;;;;;;;4.77;100.00;100283.28;4993241;28;20141;-69
2022/11/25 02:43:30;;;;;;;19.42;9.27;;;;;;;4.75;100.00;100274.59;5002261;28;20145;-71
2022/11/25 02:45:59;;;;;;;17.42;9.48;;;;;;;4.74;100.00;100278.13;4996289;28;20088;-71
2022/11/25 02:48:28;;;;;;;20.52;9.75;;;;;;;4.72;100.00;100282.56;4991433;28;20046;-71
2022/11/25 02:51:19;;;;;;;19.52;9.70;;;;;;;4.68;100.00;100275.66;4983118;28;20050;-72
2022/11/25 02:53:46;;;;;;;19.15;9.43;;;;;;;4.69;100.00;100277.41;5000394;28;20054;-71
2022/11/25 02:56:14;;;;;;;17.95;9.63;;;;;;;4.69;100.00;100280.03;4993053;28;20077;-70
2022/11/25 02:58:41;;;;;;;21.23;9.85;;;;;;;4.69;100.00;100274.78;5011398;28;20494;-70
2022/11/25 03:01:08;;;;;;;24.10;10.15;;;;;;;4.73;100.00;100272.00;4985540;28;20428;-70
2022/11/25 03:03:36;;;;;;;23.60;10.65;;;;;;;4.79;100.00;100277.13;4989783;28;20144;-71
2022/11/25 03:06:03;;;;;;;21.08;9.43;;;;;;;4.81;100.00;100269.22;4997671;28;20424;-72
2022/11/25 03:08:30;;;;;;;21.80;9.68;;;;;;;4.80;100.00;100270.09;5000751;28;20054;-72
2022/11/25 03:10:56;;;;;;;18.58;9.10;;;;;;;4.75;100.00;100275.47;4992654;28;20058;-71
2022/11/25 03:13:23;;;;;;;18.67;9.73;;;;;;;4.66;100.00;100274.84;4996025;28;20046;-72
2022/11/25 03:15:49;;;;;;;19.55;9.55;;;;;;;4.59;100.00;100281.97;5001033;28;20058;-71
2022/11/25 03:18:16;;;;;;;17.77;9.30;;;;;;;4.56;100.00;100282.09;4998249;28;20121;-72
2022/11/25 03:20:42;;;;;;;22.85;10.18;;;;;;;4.44;100.00;100270.09;4996050;28;20072;-71
2022/11/25 03:23:09;;;;;;;21.20;9.80;;;;;;;4.56;100.00;100293.41;4991596;28;20137;-72
2022/11/25 03:25:36;;;;;;;19.92;8.85;;;;;;;4.60;100.00;100291.56;4998876;28;20057;-71
2022/11/25 03:28:03;;;;;;;19.77;9.15;;;;;;;4.66;100.00;100291.44;5004024;28;20065;-72
2022/11/25 03:30:30;;;;;;;16.05;9.50;;;;;;;4.56;100.00;100271.59;4995255;28;20060;-71
2022/11/25 03:32:57;;;;;;;20.85;9.23;;;;;;;4.70;100.00;100287.84;4989632;28;20041;-71
2022/11/25 03:35:23;;;;;;;19.30;8.57;;;;;;;4.70;100.00;100284.38;5003539;28;20060;-72
2022/11/25 03:37:50;;;;;;;18.20;9.15;;;;;;;4.68;100.00;100273.03;4998835;28;20049;-71
2022/11/25 03:40:17;;;;;;;17.98;9.05;;;;;;;4.62;100.00;100268.81;4995514;28;20046;-71
2022/11/25 03:42:43;;;;;;;20.40;9.25;;;;;;;4.73;100.00;100286.88;4987574;28;20057;-70
2022/11/25 03:45:12;;;;;;;19.23;9.23;;;;;;;4.72;100.00;100287.81;4991960;28;20141;-72
2022/11/25 03:47:43;;;;;;;16.85;8.82;;;;;;;4.66;100.00;100277.47;4995801;28;20047;-71
2022/11/25 03:50:11;;;;;;;15.43;9.00;;;;;;;4.69;100.00;100282.63;4995574;28;20138;-70
2022/11/25 03:52:38;;;;;;;20.63;8.85;;;;;;;4.58;100.00;100260.16;4986794;28;20050;-73
2022/11/25 03:55:06;;;;;;;20.00;9.10;;;;;;;4.69;100.00;100286.13;4999829;28;20046;-71
2022/11/25 03:57:33;;;;;;;17.40;8.80;;;;;;;4.69;100.00;100280.03;5004972;28;20180;-72
2022/11/25 04:00:00;;;;;;;18.58;8.77;;;;;;;4.68;100.00;100267.81;5003193;28;20052;-72
2022/11/25 04:02:27;;;;;;;19.35;8.55;;;;;;;4.63;100.00;100256.56;4986733;28;20111;-71
2022/11/25 04:04:54;;;;;;;19.50;8.65;;;;;;;4.73;100.00;100266.75;5000259;28;20073;-72
2022/11/25 04:07:20;;;;;;;17.10;8.30;;;;;;;4.75;100.00;100264.09;5000987;28;20050;-70
2022/11/25 04:09:47;;;;;;;20.85;8.90;;;;;;;4.73;100.00;100274.63;5002414;28;20352;-71
2022/11/25 04:14:59;;;;;;;15.55;8.32;;;;;;;4.77;100.00;100284.16;5003872;28;20056;-71
2022/11/25 04:17:25;;;;;;;19.50;8.35;;;;;;;4.79;100.00;100276.25;4996005;28;20058;-71
2022/11/25 04:19:52;;;;;;;18.10;9.10;;;;;;;4.83;100.00;100267.41;4991665;28;20137;-72
2022/11/25 04:22:19;;;;;;;20.48;8.38;;;;;;;4.87;100.00;100271.69;4984941;28;20418;-71
2022/11/25 04:24:45;;;;;;;18.23;9.10;;;;;;;4.87;100.00;100269.06;4998424;28;20073;-72
2022/11/25 04:27:12;;;;;;;21.42;8.70;;;;;;;4.86;100.00;100275.22;5001616;28;20505;-71
2022/11/25 04:29:38;;;;;;;20.42;9.30;;;;;;;4.82;100.00;100277.03;4997328;28;20053;-71
2022/11/25 04:32:05;;;;;;;14.90;8.23;;;;;;;4.80;100.00;100264.84;4986201;28;20109;-71
2022/11/25 04:34:32;;;;;;;19.95;8.50;;;;;;;4.83;100.00;100272.66;4993989;28;20042;-71
2022/11/25 04:36:58;;;;;;;22.55;8.60;;;;;;;4.88;100.00;100278.63;4997159;28;20058;-71
2022/11/25 04:39:25;;;;;;;23.13;9.63;;;;;;;4.89;100.00;100277.72;5004160;28;20444;-71
2022/11/25 04:42:30;;;;;;;17.73;9.10;;;;;;;4.91;100.00;100278.56;4986268;28;20056;-71
2022/11/25 04:44:41;;;;;;;16.95;8.75;;;;;;;4.92;100.00;100272.41;4992017;28;20058;-70
2022/11/25 04:47:28;;;;;;;18.95;9.35;;;;;;;4.92;100.00;100281.16;4997021;28;20072;-72
2022/11/25 04:49:55;;;;;;;21.67;8.85;;;;;;;4.88;100.00;100274.25;4995321;28;20052;-70
2022/11/25 04:52:22;;;;;;;16.15;8.20;;;;;;;4.87;100.00;100271.69;4984411;28;20061;-71
2022/11/25 04:54:48;;;;;;;16.23;8.75;;;;;;;4.78;100.00;100264.91;4995709;28;20046;-71
2022/11/25 04:57:15;;;;;;;18.25;8.93;;;;;;;4.70;100.00;100247.66;4998608;28;20499;-71
2022/11/25 04:59:42;;;;;;;16.55;8.23;;;;;;;4.85;100.00;100263.84;4995103;28;20149;-71
2022/11/25 05:02:15;;;;;;;19.42;8.50;;;;;;;4.91;100.00;100268.06;4990474;28;20059;-72
2022/11/25 05:04:44;;;;;;;17.95;8.07;;;;;;;4.82;100.00;100239.44;4991909;28;20066;-72
2022/11/25 05:07:11;;;;;;;19.63;8.15;;;;;;;4.94;100.00;100260.13;4986793;28;20125;-71
2022/11/25 05:09:38;;;;;;;18.63;8.73;;;;;;;4.83;100.00;100238.56;5001637;28;20069;-72
2022/11/25 05:12:06;;;;;;;15.75;7.70;;;;;;;4.97;100.00;100275.78;4981296;28;20058;-72
2022/11/25 05:14:34;;;;;;;17.10;7.95;;;;;;;4.93;100.00;100279.38;5002327;28;20133;-71
2022/11/25 05:17:05;;;;;;;12.95;7.65;;;;;;;4.92;100.00;100277.66;4997407;28;20491;-72
2022/11/25 05:19:34;;;;;;;14.32;7.63;;;;;;;4.85;100.00;100265.63;4993545;28;20468;-71
2022/11/25 05:22:01;;;;;;;13.38;7.68;;;;;;;4.93;100.00;100282.00;4983547;28;20050;-71
2022/11/25 05:24:27;;;;;;;16.15;7.93;;;;;;;4.84;100.00;100262.13;4988242;28;20042;-71
2022/11/25 05:26:54;;;;;;;17.52;8.07;;;;;;;4.92;100.00;100272.41;4986959;28;20061;-71
2022/11/25 05:29:21;;;;;;;14.95;7.50;;;;;;;4.78;100.00;100251.78;4997693;28;20413;-70
2022/11/25 05:31:47;;;;;;;19.23;8.45;;;;;;;4.97;100.00;100274.94;4993772;28;20051;-73
2022/11/25 05:34:14;;;;;;;15.40;6.88;;;;;;;5.04;100.00;100272.09;4991403;28;20170;-71
2022/11/25 05:36:41;;;;;;;14.65;7.30;;;;;;;5.05;100.00;100271.19;4998757;28;20058;-71
2022/11/25 05:39:07;;;;;;;15.45;7.53;;;;;;;5.10;100.00;100261.44;4998460;28;20050;-70
2022/11/25 05:41:34;;;;;;;16.33;7.38;;;;;;;4.93;100.00;100248.75;4986372;28;20145;-70
2022/11/25 05:44:00;;;;;;;17.65;7.50;;;;;;;4.98;100.00;100250.41;4988574;28;20060;-72
2022/11/25 05:46:27;;;;;;;15.07;7.22;;;;;;;5.09;100.00;100259.72;5002606;28;20046;-71
2022/11/25 05:48:55;;;;;;;11.63;6.55;;;;;;;5.03;100.00;100261.66;4993973;28;20526;-72
2022/11/25 05:51:23;;;;;;;17.92;6.75;;;;;;;5.08;100.00;100265.84;4991853;28;20070;-70
2022/11/25 05:53:56;;;;;;;14.65;6.90;;;;;;;5.11;100.00;100272.78;4987447;28;20053;-72
2022/11/25 05:56:26;;;;;;;16.15;7.30;;;;;;;5.11;100.00;100272.78;4996583;28;20062;-72
2022/11/25 05:58:53;;;;;;;15.20;6.55;;;;;;;5.01;100.00;100258.22;5005776;28;20058;-71
2022/11/25 06:01:22;;;;;;;15.85;6.53;;;;;;;5.11;100.00;100289.41;4997485;28;20058;-71
2022/11/25 06:03:48;;;;;;;14.95;6.97;;;;;;;5.04;100.00;100271.22;4980769;28;20140;-71
2022/11/25 06:06:16;;;;;;;14.25;6.53;;;;;;;5.08;100.00;100280.75;5000679;28;20046;-70
2022/11/25 06:08:43;;;;;;;18.30;7.55;;;;;;;5.08;100.00;100289.47;4996373;28;20081;-72
2022/11/25 06:11:12;;;;;;;15.30;6.45;;;;;;;5.11;100.00;100293.78;4988427;28;20041;-70
2022/11/25 06:13:40;;;;;;;14.75;6.95;;;;;;;5.14;100.00;100297.22;4985584;28;20062;-70
2022/11/25 06:16:11;;;;;;;16.83;6.60;;;;;;;5.16;100.00;100303.28;4991767;28;20053;-70
2022/11/25 06:18:38;;;;;;;13.10;6.65;;;;;;;5.12;100.00;100293.75;4992773;28;20062;-70
2022/11/25 06:21:06;;;;;;;14.43;6.95;;;;;;;5.20;100.00;100310.16;4995430;28;20115;-71
2022/11/25 06:23:34;;;;;;;14.98;6.88;;;;;;;5.08;100.00;100281.59;4980822;28;20042;-70
2022/11/25 06:26:04;;;;;;;16.55;7.50;;;;;;;5.24;100.00;100311.81;4993056;28;20121;-72
2022/11/25 06:28:31;;;;;;;;;;;;;;;5.25;100.00;100318.78;4995502;28;20049;-71
2022/11/25 06:31:07;;;;;;;20.35;9.48;;;;;;;5.26;100.00;100309.13;4998459;28;20015;-71
2022/11/25 06:33:34;;;;;;;16.77;9.10;;;;;;;5.30;100.00;100313.41;4977740;28;20054;-73
2022/11/25 06:36:02;;;;;;;15.13;10.23;;;;;;;5.38;100.00;100313.19;5000844;28;20062;-72
2022/11/25 06:38:30;;;;;;;24.05;10.07;;;;;;;5.39;100.00;100314.91;4998113;28;20046;-70
2022/11/25 06:41:04;;;;;;;22.88;9.75;;;;;;;5.32;100.00;100313.38;4991941;28;20138;-72
2022/11/25 06:43:31;;;;;;;19.42;10.30;;;;;;;5.26;100.00;100324.88;4982263;28;20095;-71
2022/11/25 06:46:06;;;;;;;20.23;10.52;;;;;;;5.24;100.00;100329.31;4993087;28;20088;-70
2022/11/25 06:48:34;;;;;;;21.65;9.77;;;;;;;5.25;100.00;100326.66;4994178;28;20045;-71
2022/11/25 06:51:04;;;;;;;19.15;9.85;;;;;;;5.25;100.00;100331.03;4993429;28;20133;-69
2022/11/25 06:53:31;;;;;;;19.73;10.35;;;;;;;5.29;100.00;100330.06;4987765;28;20060;-73
2022/11/25 06:56:04;;;;;;;22.60;10.40;;;;;;;5.33;100.00;100342.22;4994851;28;20049;-73
2022/11/25 06:58:31;;;;;;;21.15;11.00;;;;;;;5.23;100.00;100319.72;4990604;28;20045;-72
2022/11/25 07:01:04;;;;;;;26.98;10.80;;;;;;;5.26;100.00;100324.88;4994714;28;20456;-70
2022/11/25 07:03:31;;;;;;;21.08;10.70;;;;;;;5.37;100.00;100341.22;4976891;28;20089;-71
2022/11/25 07:05:58;;;;;;;22.55;10.52;;;;;;;5.41;100.00;100342.00;5000572;28;20970;-70
2022/11/25 07:08:26;;;;;;;18.33;10.05;;;;;;;5.36;100.00;100323.72;4995691;28;20056;-70
2022/11/25 07:11:11;;;;;;;22.23;9.85;;;;;;;5.47;100.00;100333.97;4990850;28;20062;-70
2022/11/25 07:13:38;;;;;;;19.65;10.63;;;;;;;5.51;100.00;100341.69;4975479;28;20501;-71
2022/11/25 07:16:05;;;;;;;20.13;10.05;;;;;;;5.53;100.00;100344.28;4993936;28;20042;-69
2022/11/25 07:18:35;;;;;;;21.27;11.23;;;;;;;5.57;100.00;100343.31;4986875;28;20124;-70
2022/11/25 07:21:10;;;;;;;26.35;11.48;;;;;;;5.53;100.00;100333.78;4990722;28;20046;-71
2022/11/25 07:23:37;;;;;;;25.95;11.27;;;;;;;5.54;100.00;100335.50;4977463;28;20046;-71
2022/11/25 07:26:06;;;;;;;28.98;11.55;;;;;;;5.54;100.00;100341.63;4992345;28;20046;-73
2022/11/25 07:28:34;;;;;;;25.23;12.18;;;;;;;5.59;100.00;100349.38;4998943;28;20069;-70
2022/11/25 07:31:22;;;;;;;26.45;11.07;;;;;;;5.41;100.00;100324.47;4998801;28;20394;-69
2022/11/25 07:34:01;;;;;;;31.83;10.32;;;;;;;5.59;100.00;100350.25;4986896;28;20153;-70
2022/11/25 07:36:29;;;;;;;25.38;11.80;;;;;;;5.60;100.00;100351.09;4988231;28;20478;-71
2022/11/25 07:39:01;;;;;;;23.15;10.68;;;;;;;5.64;100.00;100358.88;4995915;28;20176;-70
2022/11/25 07:41:30;;;;;;;27.42;11.55;;;;;;;5.69;100.00;100365.75;4991481;28;20505;-72
2022/11/25 07:43:59;;;;;;;21.65;10.63;;;;;;;5.68;100.00;100364.03;4981260;28;20108;-72
2022/11/25 07:46:30;;;;;;;24.95;10.80;;;;;;;5.70;100.00;100368.34;4999839;28;20057;-71
2022/11/25 07:48:57;;;;;;;;;;;;;;;5.74;100.00;100369.13;4997713;28;20471;-71
2022/11/25 07:51:30;;;;;;;23.17;10.00;;;;;;;5.78;100.00;100370.75;4997298;28;19925;-70
2022/11/25 07:53:59;;;;;;;24.70;10.50;;;;;;;5.69;100.00;100353.47;4989811;28;20504;-72
2022/11/25 07:56:27;;;;;;;24.88;9.75;;;;;;;5.79;100.00;100378.59;4994400;28;20059;-72
2022/11/25 07:58:55;;;;;;;27.90;10.90;;;;;;;5.62;100.00;100350.16;4999659;28;20491;-71
2022/11/25 08:01:22;;;;;;;25.42;9.95;;;;;;;5.82;100.00;100383.78;5004178;28;20140;-69
2022/11/25 08:03:50;;;;;;;22.00;9.68;;;;;;;5.81;100.00;100382.06;4981178;28;20122;-72
2022/11/25 08:06:24;;;;;;;23.05;10.70;;;;;;;5.78;100.00;100382.13;5006752;28;20129;-71
2022/11/25 08:08:54;;;;;;;21.77;10.57;;;;;;;5.79;100.00;100386.50;4997105;28;20125;-70
2022/11/25 08:11:26;;;;;;;22.58;11.15;;;;;;;5.80;100.00;100387.34;4996433;28;20050;-70
2022/11/25 08:13:53;;;;;;;22.92;10.95;;;;;;;5.78;100.00;100384.75;4982747;28;20101;-70
2022/11/25 08:16:22;;;;;;;25.48;11.50;;;;;;;5.78;100.00;100384.75;5000172;28;20074;-70
2022/11/25 08:18:49;;;;;;;29.83;11.35;;;;;;;5.72;100.00;100379.66;4998303;28;20053;-72
2022/11/25 08:21:17;;;;;;;24.50;10.73;;;;;;;5.69;100.00;100395.50;5001453;28;20054;-71
2022/11/25 08:23:47;;;;;;;25.63;11.02;;;;;;;5.66;100.00;100389.50;4984932;28;20125;-72
2022/11/25 08:26:20;;;;;;;23.25;11.75;;;;;;;5.61;100.00;100394.88;4999480;28;20052;-70
2022/11/25 08:28:47;;;;;;;23.20;11.10;;;;;;;5.53;100.00;100384.53;5000531;28;20069;-70
2022/11/25 08:31:22;;;;;;;29.10;11.65;;;;;;;5.65;100.00;100391.25;5004506;28;20112;-70
2022/11/25 08:33:50;;;;;;;23.48;10.63;;;;;;;5.68;100.00;100401.66;4986432;28;20066;-71
2022/11/25 08:36:17;;;;;;;30.85;11.32;;;;;;;5.58;100.00;100371.31;5002253;28;20129;-71
2022/11/25 08:38:46;;;;;;;28.05;11.88;;;;;;;5.67;100.00;100385.97;4999141;28;20042;-71
2022/11/25 08:41:24;;;;;;;28.08;11.98;;;;;;;5.67;100.00;100404.34;4983241;28;20105;-71
2022/11/25 08:43:51;;;;;;;22.17;11.25;;;;;;;5.63;100.00;100404.44;4979056;28;20051;-70
2022/11/25 08:46:21;;;;;;;27.00;11.10;;;;;;;5.59;100.00;100392.28;4999218;28;20042;-70
2022/11/25 08:48:48;;;;;;;19.15;10.88;;;;;;;5.66;100.00;100397.38;4988109;28;20050;-71
2022/11/25 08:51:18;;;;;;;23.48;10.85;;;;;;;5.76;100.00;100404.97;4996880;28;20042;-70
2022/11/25 08:53:46;;;;;;;21.27;10.82;;;;;;;5.68;100.00;100387.66;4987653;28;20050;-70
2022/11/25 08:56:13;;;;;;;22.95;11.35;;;;;;;5.76;100.00;100404.97;4998208;28;20116;-72
2022/11/25 08:58:40;;;;;;;23.40;10.90;;;;;;;5.67;100.00;100392.06;4993720;28;20053;-71
2022/11/25 09:01:07;;;;;;;23.65;10.25;;;;;;;5.83;100.00;100410.91;5007326;28;20046;-72
2022/11/25 09:03:38;;;;;;;24.77;10.90;;;;;;;5.83;100.00;100411.75;4982923;28;20051;-72
2022/11/25 09:06:06;;;;;;;24.20;10.77;;;;;;;5.84;100.00;100416.13;5002621;28;20137;-70
2022/11/25 09:08:33;;;;;;;26.00;11.20;;;;;;;5.77;100.00;100417.19;4998503;28;20046;-70
2022/11/25 09:10:59;;;;;;;22.52;10.48;;;;;;;5.79;100.00;100422.41;4990687;28;20074;-70
2022/11/25 09:13:26;;;;;;;25.33;11.30;;;;;;;5.79;100.00;100415.41;4987874;28;20506;-71
2022/11/25 09:15:53;;;;;;;23.90;11.10;;;;;;;5.81;100.00;100429.34;4996925;28;20506;-72
2022/11/25 09:18:24;;;;;;;19.27;10.40;;;;;;;5.81;100.00;100429.34;4993690;28;20077;-71
2022/11/25 09:20:52;;;;;;;20.60;10.32;;;;;;;5.85;100.00;100441.50;4996526;28;20093;-71
2022/11/25 09:23:22;;;;;;;18.10;10.65;;;;;;;5.80;100.00;100446.03;4994771;28;20061;-71
2022/11/25 09:25:55;;;;;;;24.75;10.75;;;;;;;5.78;100.00;100447.81;4991556;28;20050;-71
2022/11/25 09:28:23;;;;;;;22.40;11.25;;;;;;;5.80;100.00;100443.41;4997849;28;20050;-72
2022/11/25 09:30:50;;;;;;;19.70;10.77;;;;;;;5.81;100.00;100455.63;5000505;28;20050;-71
2022/11/25 09:33:18;;;;;;;26.35;10.38;;;;;;;5.80;100.00;100453.91;4987142;28;20054;-71
2022/11/25 09:35:46;;;;;;;18.45;10.20;;;;;;;5.87;100.00;100459.84;5002360;28;20069;-72
2022/11/25 09:38:13;;;;;;;20.27;10.38;;;;;;;5.92;100.00;100455.38;4994993;28;20525;-71
2022/11/25 09:40:55;;;;;;;23.88;10.05;;;;;;;5.97;100.00;100462.25;5005121;28;20054;-71
2022/11/25 09:46:46;;;;;;;19.52;10.05;;;;;;;6.10;100.00;100460.13;4991968;28;20105;-71
2022/11/25 09:49:13;;;;;;;20.15;9.85;;;;;;;6.14;100.00;100468.81;4994518;28;20061;-72
2022/11/25 09:52:00;;;;;;;19.13;9.75;;;;;;;6.22;100.00;100466.81;4996770;28;20058;-71
2022/11/25 09:54:38;;;;;;;20.50;9.90;;;;;;;6.28;100.00;100474.53;4972230;28;20133;-71
2022/11/25 09:57:25;;;;;;;23.75;10.52;;;;;;;6.16;100.00;100461.72;4995476;28;20068;-71
2022/11/25 10:00:09;;;;;;;18.65;9.77;;;;;;;6.20;100.00;100442.31;4999939;28;20197;-72
2022/11/25 10:02:59;;;;;;;19.17;9.20;;;;;;;6.50;100.00;100462.47;4989955;28;20081;-71
2022/11/25 10:05:33;;;;;;;17.10;9.23;;;;;;;6.39;100.00;100442.66;4984512;28;20050;-72
2022/11/25 10:08:08;;;;;;;18.52;9.63;;;;;;;6.52;100.00;100471.19;4993678;28;20060;-71
2022/11/25 10:10:45;;;;;;;18.58;9.60;;;;;;;6.53;100.00;100472.91;4997147;28;20066;-71
2022/11/25 10:13:19;;;;;;;22.13;9.60;;;;;;;6.46;100.00;100441.56;4990024;28;20051;-71
2022/11/25 10:15:49;;;;;;;20.35;9.35;;;;;;;6.73;100.00;100474.97;4987773;28;20078;-72
2022/11/25 10:18:28;;;;;;;13.63;7.78;;;;;;;6.65;100.00;100476.94;4994501;28;20054;-70
2022/11/25 10:20:55;;;;;;;18.35;9.70;;;;;;;6.22;100.00;100394.03;4996114;28;20070;-71
2022/11/25 10:23:32;;;;;;;16.88;9.70;;;;;;;6.84;100.00;100477.25;4992987;28;20050;-70
2022/11/25 10:26:12;;;;;;;19.67;9.75;;;;;;;6.82;100.00;100460.66;4993877;28;20148;-71
2022/11/25 10:28:43;;;;;;;21.05;10.07;;;;;;;7.06;100.00;100478.34;4991686;28;20168;-70
2022/11/25 10:31:17;;;;;;;20.52;9.80;;;;;;;7.17;100.00;100473.59;4995818;28;20046;-73
2022/11/25 10:33:45;;;;;;;19.90;9.95;;;;;;;7.30;100.00;100466.16;4982197;28;20042;-70
2022/11/25 10:36:35;;;;;;;18.23;10.35;;;;;;;7.32;100.00;100444.13;5000064;28;20046;-71
2022/11/25 10:39:10;;;;;;;13.90;9.23;;;;;;;7.61;100.00;100473.91;5002499;28;20097;-71
2022/11/25 10:41:45;;;;;;;21.35;10.63;;;;;;;7.83;100.00;100482.81;4995379;28;20050;-73
2022/11/25 10:44:25;;;;;;;19.50;10.45;;;;;;;8.14;100.00;100476.47;4986599;28;20050;-71
2022/11/25 10:47:10;;;;;;;15.27;9.95;;;;;;;8.41;100.00;100481.63;4996885;28;20054;-72
2022/11/25 10:50:07;;;;;;;15.80;9.95;;;;;;;8.37;100.00;100476.53;4991672;28;20050;-71
2022/11/25 10:52:43;;;;;;;18.25;10.32;;;;;;;8.42;100.00;100493.06;4994031;28;20054;-70
2022/11/25 10:55:13;;;;;;;17.90;9.93;;;;;;;8.38;100.00;100489.66;4981174;28;20487;-71
2022/11/25 10:57:41;;;;;;;18.27;9.82;;;;;;;8.29;100.00;100466.22;4990067;28;20133;-72
2022/11/25 11:00:33;;;;;;;18.38;9.82;;;;;;;8.39;100.00;100475.56;5001633;28;20055;-72
2022/11/25 11:03:13;;;;;;;16.10;9.57;;;;;;;8.50;100.00;100480.44;4992927;28;20489;-72
2022/11/25 11:05:48;;;;;;;15.03;10.30;;;;;;;8.58;100.00;100488.94;4985819;28;20058;-71
2022/11/25 11:08:26;;;;;;;21.02;12.20;;;;;;;8.64;100.00;100499.28;4996379;28;20452;-73
2022/11/25 11:11:14;;;;;;;22.10;11.40;;;;;;;8.67;100.00;100493.84;4995422;28;20082;-73
2022/11/25 11:13:41;;;;;;;16.70;8.95;;;;;;;8.71;100.00;100497.25;4989164;28;20294;-72
2022/11/25 11:16:30;;;;;;;20.67;11.20;;;;;;;8.64;100.00;100478.16;4984862;28;20138;-73
2022/11/25 11:18:57;;;;;;;21.00;10.63;;;;;;;8.75;100.00;100504.16;4998109;28;20061;-74
2022/11/25 11:21:33;;;;;;;18.20;9.63;;;;;;;8.54;100.00;100499.66;4999962;28;20074;-72
2022/11/25 11:24:02;;;;;;;13.52;9.68;;;;;;;8.16;100.00;100490.47;4987145;28;20082;-71
2022/11/25 11:26:34;;;;;;;17.98;10.98;;;;;;;8.33;100.00;100510.09;4995717;28;20080;-71
2022/11/25 11:29:13;;;;;;;17.63;9.32;;;;;;;8.44;100.00;100494.72;4993919;28;20175;-71
2022/11/25 11:31:50;;;;;;;21.17;11.45;;;;;;;8.54;100.00;100489.97;5000398;28;20088;-72
2022/11/25 11:34:41;;;;;;;16.80;8.68;;;;;;;8.83;100.00;100509.97;4981791;28;20043;-71
2022/11/25 11:37:46;;;;;;;16.77;9.18;;;;;;;8.89;100.00;100507.13;4997685;28;20121;-71
2022/11/25 11:40:36;;;;;;;15.65;8.20;;;;;;;8.94;100.00;100507.81;4974242;28;20042;-73
2022/11/25 11:43:05;;;;;;;15.45;9.07;;;;;;;8.99;100.00;100518.19;4995719;28;20133;-71